METAR Formatted Surface Weather Observation
Issued by NWS

Home | Current Version | Previous Version | Text Only | Print | Product List | Glossary On
Versions: 1 2 3 4 5 6 7 8 9 10 11 12 13 14 15 16 17 18 19 20 21 22 23 24 25 26 27 28 29 30 31 32 33 34 35 36 37 38 39 40 41 42 43 44 45 46 47 48 49 50
000
SAUS44 KMOB 312057
MTRNDZ
METAR KNDZ 312056Z 31008G15KT 10SM SCT036 SCT075 24/08 A2991 RMK AO2
SLP115 T02390078 55014 $



USA.gov is the U.S. government's official web portal to all federal, state and local government web resources and services.